createdAt,value
2022-12-23T00:01:43.487Z,26.50
2022-12-23T00:04:10.978Z,25.50
2022-12-23T00:06:40.704Z,25.17
2022-12-23T00:09:07.511Z,24.33
2022-12-23T00:11:54.570Z,25.40
2022-12-23T00:14:40.081Z,24.40
2022-12-23T00:17:21.681Z,24.40
2022-12-23T00:19:50.161Z,21.27
2022-12-23T00:22:16.962Z,23.85
2022-12-23T00:24:43.875Z,24.60
2022-12-23T00:27:10.864Z,22.85
2022-12-23T00:29:38.395Z,24.27
2022-12-23T00:32:05.227Z,22.90
2022-12-23T00:34:32.219Z,24.42
2022-12-23T00:36:59.200Z,24.40
2022-12-23T00:39:44.559Z,24.37
2022-12-23T00:42:30.688Z,23.73
2022-12-23T00:45:16.012Z,24.08
2022-12-23T00:48:05.159Z,23.92
2022-12-23T00:50:32.486Z,23.58
2022-12-23T00:52:59.676Z,23.87
2022-12-23T00:55:26.884Z,24.27
2022-12-23T00:57:53.628Z,25.50
2022-12-23T01:01:17.270Z,25.88
2022-12-23T01:04:03.862Z,25.37
2022-12-23T01:06:30.885Z,26.02
2022-12-23T01:08:57.559Z,27.02
2022-12-23T01:11:24.348Z,26.60
2022-12-23T01:13:51.008Z,27.00
2022-12-23T01:16:18.078Z,26.37
2022-12-23T01:24:42.149Z,25.10
2022-12-23T01:30:18.445Z,26.00
2022-12-23T01:36:12.017Z,26.37
2022-12-23T01:39:43.376Z,27.52
2022-12-23T01:42:47.717Z,26.85
2022-12-23T01:48:30.640Z,26.92
2022-12-23T01:51:20.854Z,27.73
2022-12-23T01:54:19.628Z,25.62
2022-12-23T01:57:13.643Z,26.92
2022-12-23T02:00:21.647Z,26.67
2022-12-23T02:03:13.651Z,28.50
2022-12-23T02:05:53.758Z,29.00
2022-12-23T02:11:53.804Z,29.20
2022-12-23T02:15:09.711Z,28.87
2022-12-23T03:01:26.526Z,34.03
2022-12-23T03:04:20.227Z,35.55
2022-12-23T03:08:08.854Z,34.92
2022-12-23T03:54:09.900Z,38.25
2022-12-23T03:57:26.823Z,39.33
2022-12-23T04:19:32.097Z,41.37
2022-12-23T04:26:06.369Z,39.53
2022-12-23T04:29:00.033Z,40.17
2022-12-23T04:32:26.658Z,38.80
2022-12-23T04:35:23.207Z,38.90
2022-12-23T04:38:13.442Z,40.08
2022-12-23T04:44:24.885Z,40.08
2022-12-23T04:50:21.250Z,38.60
2022-12-23T04:56:03.663Z,37.72
2022-12-23T04:59:00.318Z,39.08
2022-12-23T05:01:39.707Z,38.47
2022-12-23T05:04:17.806Z,38.30
2022-12-23T05:07:02.437Z,37.30
2022-12-23T05:22:33.575Z,28.87
2022-12-23T05:25:00.338Z,28.52
2022-12-23T05:37:04.076Z,32.10
2022-12-23T05:42:51.699Z,31.73
2022-12-23T05:49:02.492Z,33.45
2022-12-23T05:52:08.022Z,32.38
2022-12-23T06:13:20.513Z,25.95
2022-12-23T06:16:23.030Z,27.85
2022-12-23T06:28:12.608Z,24.70
2022-12-23T06:34:19.068Z,26.00
2022-12-23T06:37:26.298Z,26.73
2022-12-23T06:43:29.594Z,25.58
2022-12-23T07:03:27.196Z,22.83
2022-12-23T08:29:21.965Z,22.83
2022-12-23T09:14:30.429Z,25.17
2022-12-23T09:22:41.098Z,26.77
2022-12-23T09:25:09.636Z,25.37
2022-12-23T09:27:47.057Z,30.62
2022-12-23T09:30:15.881Z,25.35
2022-12-23T09:33:30.547Z,25.62
2022-12-23T09:36:19.247Z,25.95
2022-12-23T10:54:40.133Z,23.92
2022-12-23T11:13:02.870Z,23.07
2022-12-23T11:15:42.753Z,25.33
2022-12-23T11:18:12.616Z,24.17
2022-12-23T11:24:10.576Z,23.87
2022-12-23T11:26:48.197Z,24.83
2022-12-23T11:30:01.518Z,24.00
2022-12-23T11:32:26.542Z,25.10
2022-12-23T11:34:57.073Z,24.42
2022-12-23T11:37:43.487Z,25.37
2022-12-23T11:40:27.151Z,24.63
2022-12-23T11:43:05.005Z,26.45
2022-12-23T11:45:54.134Z,25.27
2022-12-23T11:48:34.784Z,24.30
2022-12-23T18:20:36.744Z,26.67
2022-12-23T18:27:50.644Z,26.70
2022-12-23T20:57:04.908Z,25.42
2022-12-23T21:38:01.027Z,22.52
2022-12-23T22:34:46.311Z,23.23
2022-12-23T22:37:17.862Z,22.17
2022-12-23T22:39:46.968Z,21.58
2022-12-23T22:42:13.951Z,21.30
2022-12-23T22:44:41.066Z,23.20
2022-12-23T22:47:08.211Z,19.85
2022-12-23T22:49:37.466Z,19.37
2022-12-23T22:52:04.949Z,18.62
2022-12-23T22:54:31.807Z,19.35
2022-12-23T22:56:58.740Z,18.27
2022-12-23T22:59:27.888Z,18.93
2022-12-23T23:01:54.847Z,18.02
2022-12-23T23:04:25.082Z,18.95
2022-12-23T23:06:52.018Z,19.50
2022-12-23T23:09:19.750Z,20.37
2022-12-23T23:14:14.126Z,18.80
2022-12-23T23:16:41.283Z,20.80
2022-12-23T23:19:09.908Z,21.92
2022-12-23T23:21:37.971Z,22.35
2022-12-23T23:24:05.477Z,20.75
2022-12-23T23:26:32.169Z,23.02
2022-12-23T23:29:01.906Z,23.70
2022-12-23T23:31:44.948Z,22.75
2022-12-23T23:34:13.614Z,23.83
2022-12-23T23:36:40.681Z,22.95
2022-12-23T23:39:08.030Z,24.55
2022-12-23T23:41:36.473Z,25.17
2022-12-23T23:44:03.474Z,23.45
2022-12-23T23:56:43.514Z,20.23
